Time;durP1;ratioP1;P1;durP2;ratioP2;P2;SDS_P1;SDS_P2;PMS_P1;PMS_P2;Temp;Humidity;BMP_temperature;BMP_pressure;BME280_temperature;BME280_humidity;BME280_pressure;Samples;Min_cycle;Max_cycle;Signal;HPM_P1;HPM_P2
2021/08/17 00:00:49;;;;;;;13.43;9.95;;;23.40;56.70;;;;;;5053465;28;20036;-60
2021/08/17 00:03:15;;;;;;;14.88;11.05;;;23.40;56.90;;;;;;5053246;28;20029;-60
2021/08/17 00:05:44;;;;;;;12.60;9.52;;;23.40;57.50;;;;;;5053513;28;20036;-60
2021/08/17 00:08:10;;;;;;;13.65;10.13;;;23.40;57.20;;;;;;5053393;28;20036;-60
2021/08/17 00:10:36;;;;;;;12.82;9.13;;;23.40;57.30;;;;;;5053461;28;20021;-60
2021/08/17 00:13:02;;;;;;;13.48;9.60;;;23.40;57.10;;;;;;5053369;28;20060;-60
2021/08/17 00:15:28;;;;;;;11.73;8.40;;;23.40;56.90;;;;;;5053103;28;20025;-60
2021/08/17 00:17:54;;;;;;;12.35;8.75;;;23.40;57.40;;;;;;5053029;28;20482;-60
2021/08/17 00:20:20;;;;;;;13.77;9.05;;;23.30;56.80;;;;;;5053397;28;20099;-60
2021/08/17 00:22:46;;;;;;;12.77;9.88;;;23.30;56.90;;;;;;5053339;28;20028;-60
2021/08/17 00:25:12;;;;;;;13.15;10.48;;;23.20;57.20;;;;;;5053295;28;20055;-61
2021/08/17 00:27:38;;;;;;;14.45;10.32;;;23.20;57.40;;;;;;5053294;28;20037;-61
2021/08/17 00:30:06;;;;;;;13.50;10.20;;;23.20;57.30;;;;;;5053262;28;20029;-60
2021/08/17 00:32:32;;;;;;;13.30;9.45;;;23.20;57.30;;;;;;5052949;28;20064;-60
2021/08/17 00:34:57;;;;;;;14.18;10.27;;;23.10;57.20;;;;;;5053067;28;20535;-60
2021/08/17 00:37:24;;;;;;;13.65;10.38;;;23.10;57.50;;;;;;5053181;28;20021;-60
2021/08/17 00:39:49;;;;;;;15.55;10.02;;;23.10;57.80;;;;;;5052969;28;20388;-60
2021/08/17 00:42:15;;;;;;;15.10;10.50;;;23.10;57.70;;;;;;5052628;28;20025;-60
2021/08/17 00:44:42;;;;;;;15.20;11.70;;;23.10;57.80;;;;;;5052954;28;20079;-61
2021/08/17 00:47:07;;;;;;;17.73;11.73;;;23.20;58.10;;;;;;5053035;28;20476;-60
2021/08/17 00:49:33;;;;;;;13.65;10.75;;;23.30;58.00;;;;;;5053102;28;20044;-61
2021/08/17 00:52:07;;;;;;;13.70;10.90;;;23.30;57.70;;;;;;5052436;28;20029;-60
2021/08/17 00:54:45;;;;;;;14.23;9.98;;;23.30;57.70;;;;;;5052746;28;20021;-60
2021/08/17 00:57:12;;;;;;;13.98;10.52;;;23.30;57.60;;;;;;5053036;28;20017;-60
2021/08/17 00:59:38;;;;;;;14.70;10.88;;;23.30;57.70;;;;;;5052889;28;20384;-60
2021/08/17 01:02:05;;;;;;;14.65;11.23;;;23.30;57.60;;;;;;5052672;28;20029;-61
2021/08/17 01:04:40;;;;;;;16.52;11.85;;;23.30;57.60;;;;;;5052021;28;20035;-60
2021/08/17 01:07:07;;;;;;;17.25;12.57;;;23.30;57.70;;;;;;5052328;28;20032;-61
2021/08/17 01:09:33;;;;;;;16.88;12.32;;;23.40;57.70;;;;;;5052553;28;20028;-60
2021/08/17 01:12:00;;;;;;;14.98;11.77;;;23.50;57.60;;;;;;5052326;28;20039;-61
2021/08/17 01:14:27;;;;;;;17.70;12.90;;;23.50;57.20;;;;;;5053535;28;20044;-60
2021/08/17 01:16:53;;;;;;;14.93;10.82;;;23.50;57.30;;;;;;5052676;28;20419;-63
2021/08/17 01:19:20;;;;;;;14.93;12.27;;;23.50;57.00;;;;;;5052055;28;20800;-64
2021/08/17 01:21:46;;;;;;;16.10;12.43;;;23.50;57.20;;;;;;5052540;28;20033;-63
2021/08/17 01:24:12;;;;;;;17.83;12.38;;;23.50;57.20;;;;;;5051907;28;20051;-63
2021/08/17 01:26:39;;;;;;;15.98;12.00;;;23.50;57.10;;;;;;5052047;28;20055;-63
2021/08/17 01:29:04;;;;;;;13.85;10.65;;;23.50;57.00;;;;;;5052441;28;20380;-62
2021/08/17 01:31:31;;;;;;;15.57;12.30;;;23.40;57.00;;;;;;5051701;28;20036;-62
2021/08/17 01:33:57;;;;;;;15.45;11.43;;;23.30;57.30;;;;;;5051894;28;20025;-63
2021/08/17 01:36:22;;;;;;;13.45;10.85;;;23.20;57.40;;;;;;5051702;28;20029;-64
2021/08/17 01:38:50;;;;;;;12.93;9.70;;;23.20;57.30;;;;;;5051754;28;20082;-64
2021/08/17 01:41:16;;;;;;;14.93;10.38;;;23.10;57.40;;;;;;5051754;28;20087;-63
2021/08/17 01:43:43;;;;;;;12.77;9.50;;;23.10;57.30;;;;;;5051894;28;20025;-64
2021/08/17 01:46:10;;;;;;;13.43;10.85;;;23.00;57.40;;;;;;5051750;28;20087;-63
2021/08/17 01:48:36;;;;;;;13.35;10.13;;;23.00;57.70;;;;;;5050478;28;20029;-63
2021/08/17 01:51:02;;;;;;;14.02;10.57;;;23.00;57.60;;;;;;5051436;28;20120;-64
2021/08/17 01:53:29;;;;;;;13.07;9.30;;;23.10;57.70;;;;;;5051687;28;20446;-63
2021/08/17 01:55:57;;;;;;;11.90;9.40;;;23.00;57.40;;;;;;5051588;28;20017;-63
2021/08/17 01:58:23;;;;;;;14.43;9.45;;;23.00;57.40;;;;;;5051669;28;20028;-63
2021/08/17 02:00:49;;;;;;;12.60;9.70;;;23.00;57.50;;;;;;5049866;28;20021;-63
2021/08/17 02:03:15;;;;;;;12.10;8.95;;;23.00;57.50;;;;;;5051592;28;20025;-63
2021/08/17 02:05:40;;;;;;;13.60;9.40;;;23.00;57.40;;;;;;5051295;28;20068;-64
2021/08/17 02:08:06;;;;;;;12.18;9.05;;;22.90;57.50;;;;;;5051292;28;20020;-63
2021/08/17 02:10:32;;;;;;;10.50;8.25;;;23.00;57.50;;;;;;5051319;28;20491;-63
2021/08/17 02:12:58;;;;;;;12.07;9.15;;;22.90;57.40;;;;;;5051621;28;20059;-63
2021/08/17 02:15:23;;;;;;;13.50;9.88;;;23.00;57.60;;;;;;5050924;28;20118;-63
2021/08/17 02:17:49;;;;;;;13.13;9.73;;;23.00;57.80;;;;;;5051420;28;20029;-63
2021/08/17 02:20:15;;;;;;;12.75;9.70;;;23.00;58.30;;;;;;5050197;28;20064;-63
2021/08/17 02:22:40;;;;;;;12.68;9.57;;;23.10;57.50;;;;;;5051195;28;20028;-63
2021/08/17 02:25:07;;;;;;;14.85;10.88;;;23.20;57.50;;;;;;5051653;28;20819;-66
2021/08/17 02:27:36;;;;;;;13.70;9.20;;;23.20;57.30;;;;;;5049288;28;20029;-65
2021/08/17 02:30:04;;;;;;;13.00;8.68;;;23.10;57.10;;;;;;5051239;28;20095;-66
2021/08/17 02:32:30;;;;;;;10.60;8.07;;;23.00;57.20;;;;;;5063340;28;20032;-64
2021/08/17 02:34:56;;;;;;;10.98;7.60;;;22.80;57.30;;;;;;5071133;28;20428;-63
2021/08/17 02:37:22;;;;;;;13.27;8.80;;;22.70;57.50;;;;;;5071506;28;20025;-63
2021/08/17 02:39:47;;;;;;;12.23;9.73;;;22.60;58.00;;;;;;5067812;28;20740;-63
2021/08/17 02:42:13;;;;;;;14.32;10.77;;;22.60;58.30;;;;;;5050770;28;20116;-65
2021/08/17 02:44:38;;;;;;;11.90;9.45;;;22.70;58.70;;;;;;5050371;28;20033;-64
2021/08/17 02:47:04;;;;;;;14.80;11.10;;;22.70;58.30;;;;;;5050817;28;20099;-62
2021/08/17 02:49:32;;;;;;;13.20;10.10;;;22.70;58.60;;;;;;5050661;28;20039;-62
2021/08/17 02:52:00;;;;;;;12.75;10.05;;;22.70;58.50;;;;;;5050189;28;20079;-63
2021/08/17 02:54:26;;;;;;;12.30;9.68;;;22.70;58.30;;;;;;5050479;28;20051;-62
2021/08/17 02:56:52;;;;;;;14.52;11.40;;;22.70;58.20;;;;;;5050980;28;20056;-66
2021/08/17 02:59:17;;;;;;;14.50;11.30;;;22.60;58.50;;;;;;5050723;28;20029;-63
2021/08/17 03:01:43;;;;;;;14.70;11.93;;;22.60;58.60;;;;;;5050909;28;20032;-62
2021/08/17 03:04:09;;;;;;;15.70;12.48;;;22.60;58.80;;;;;;5050640;28;20071;-62
2021/08/17 03:06:34;;;;;;;15.90;12.43;;;22.60;58.90;;;;;;5050755;28;20033;-62
2021/08/17 03:09:00;;;;;;;17.02;13.70;;;22.60;58.80;;;;;;5049245;28;20020;-66
2021/08/17 03:11:26;;;;;;;19.05;13.27;;;22.70;59.00;;;;;;5050332;28;20029;-70
2021/08/17 03:13:52;;;;;;;16.00;12.00;;;22.80;58.80;;;;;;5050318;28;20017;-70
2021/08/17 03:16:17;;;;;;;13.65;10.95;;;22.90;58.40;;;;;;5050778;28;20029;-70
2021/08/17 03:18:43;;;;;;;14.93;11.48;;;23.00;58.10;;;;;;5049968;28;20044;-70
2021/08/17 03:21:09;;;;;;;13.63;10.68;;;23.10;57.90;;;;;;5049229;28;20029;-70
2021/08/17 03:23:34;;;;;;;13.07;10.25;;;23.20;57.70;;;;;;5050518;28;20058;-64
2021/08/17 03:26:00;;;;;;;14.07;10.15;;;23.30;57.60;;;;;;5050639;28;20036;-65
2021/08/17 03:28:26;;;;;;;11.77;9.02;;;23.30;57.30;;;;;;5053155;28;20036;-65
2021/08/17 03:30:52;;;;;;;12.02;10.05;;;23.40;57.10;;;;;;5054222;28;20404;-65
2021/08/17 03:33:17;;;;;;;12.43;9.63;;;23.50;56.90;;;;;;5054073;28;20033;-66
2021/08/17 03:35:43;;;;;;;13.05;8.88;;;23.50;56.50;;;;;;5054075;28;20032;-80
2021/08/17 03:38:09;;;;;;;11.40;9.00;;;23.40;56.60;;;;;;5052629;28;20377;-63
2021/08/17 03:40:34;;;;;;;10.00;8.38;;;23.30;56.70;;;;;;5053810;28;20029;-65
2021/08/17 03:43:00;;;;;;;11.38;8.15;;;23.20;57.00;;;;;;5054069;28;20449;-78
2021/08/17 03:45:26;;;;;;;12.00;8.63;;;23.10;57.10;;;;;;5053739;28;20028;-61
2021/08/17 03:47:52;;;;;;;11.00;8.23;;;23.00;57.40;;;;;;5053878;28;20379;-62
2021/08/17 03:50:18;;;;;;;10.98;8.07;;;22.90;57.50;;;;;;5053626;28;20057;-62
2021/08/17 03:52:44;;;;;;;11.25;7.32;;;22.90;57.50;;;;;;5053461;28;20029;-62
2021/08/17 03:55:12;;;;;;;9.38;6.75;;;22.80;57.50;;;;;;5053813;28;20484;-63
2021/08/17 03:57:37;;;;;;;13.30;7.85;;;22.80;57.70;;;;;;5054000;28;20048;-63
2021/08/17 04:00:05;;;;;;;9.50;7.45;;;22.80;57.80;;;;;;5053587;28;20063;-63
2021/08/17 04:02:31;;;;;;;10.00;7.65;;;22.80;57.70;;;;;;5053167;28;20147;-64
2021/08/17 04:04:56;;;;;;;10.95;8.38;;;22.80;57.80;;;;;;5053924;28;20115;-73
2021/08/17 04:07:22;;;;;;;12.10;8.98;;;22.90;57.80;;;;;;5055068;28;20057;-64
2021/08/17 04:09:48;;;;;;;11.05;8.70;;;22.90;58.00;;;;;;5053585;28;20025;-63
2021/08/17 04:12:13;;;;;;;12.93;8.25;;;22.90;57.90;;;;;;5052890;28;20029;-64
2021/08/17 04:14:39;;;;;;;11.45;7.80;;;22.90;57.90;;;;;;5053482;28;20025;-85
2021/08/17 04:17:05;;;;;;;10.15;7.32;;;22.90;58.00;;;;;;5054643;28;20025;-82
2021/08/17 04:19:30;;;;;;;9.27;7.25;;;22.90;57.80;;;;;;5053659;28;20051;-81
2021/08/17 04:21:56;;;;;;;9.77;7.28;;;23.00;58.00;;;;;;5053849;28;20460;-81
2021/08/17 04:24:22;;;;;;;11.60;7.88;;;23.00;57.90;;;;;;5051647;28;20025;-60
2021/08/17 04:26:47;;;;;;;10.18;7.25;;;23.00;57.90;;;;;;5052129;28;20071;-61
2021/08/17 04:29:13;;;;;;;9.73;7.53;;;23.00;57.80;;;;;;5053708;28;20059;-61
2021/08/17 04:31:39;;;;;;;10.35;7.20;;;23.10;57.90;;;;;;5052753;28;20035;-62
2021/08/17 04:34:05;;;;;;;11.80;7.95;;;23.10;57.80;;;;;;5072336;28;20020;-69
2021/08/17 04:36:30;;;;;;;12.43;8.65;;;23.20;57.80;;;;;;5072340;28;20480;-75
2021/08/17 04:38:56;;;;;;;11.10;7.93;;;23.20;57.80;;;;;;5052484;28;20044;-72
2021/08/17 04:41:23;;;;;;;12.95;9.50;;;23.30;57.70;;;;;;5050396;28;20362;-62
2021/08/17 04:43:48;;;;;;;13.23;9.45;;;23.30;57.80;;;;;;5052692;28;20385;-61
2021/08/17 04:46:14;;;;;;;11.52;8.30;;;23.30;57.80;;;;;;5052800;28;20046;-63
2021/08/17 04:48:40;;;;;;;10.73;7.82;;;23.40;57.80;;;;;;5052421;28;20456;-63
2021/08/17 04:51:06;;;;;;;12.73;8.85;;;23.50;57.80;;;;;;5053873;28;20171;-64
2021/08/17 04:53:31;;;;;;;11.13;8.25;;;23.50;57.80;;;;;;5052638;28;20043;-62
2021/08/17 04:55:57;;;;;;;11.10;7.43;;;23.50;57.70;;;;;;5053550;28;20029;-65
2021/08/17 04:58:23;;;;;;;10.88;8.23;;;23.60;57.90;;;;;;5053157;28;20032;-76
2021/08/17 05:00:48;;;;;;;9.95;7.65;;;23.60;58.00;;;;;;5050349;28;20369;-70
2021/08/17 05:03:15;;;;;;;12.20;8.55;;;23.60;58.00;;;;;;5052003;28;20063;-68
2021/08/17 05:05:40;;;;;;;9.77;7.72;;;23.70;58.20;;;;;;5052612;28;20028;-72
2021/08/17 05:08:10;;;;;;;11.07;8.02;;;23.80;58.10;;;;;;5052452;28;20025;-62
2021/08/17 05:10:36;;;;;;;12.73;9.38;;;23.90;58.20;;;;;;5052175;28;20107;-75
2021/08/17 05:13:03;;;;;;;9.82;7.72;;;23.90;58.10;;;;;;5052799;28;20052;-80
2021/08/17 05:15:33;;;;;;;11.43;8.30;;;24.00;58.00;;;;;;5052089;28;20021;-62
2021/08/17 05:17:59;;;;;;;11.73;8.65;;;24.00;57.90;;;;;;5051679;28;20032;-63
2021/08/17 05:20:25;;;;;;;9.70;6.85;;;24.10;58.50;;;;;;5051464;28;20104;-62
2021/08/17 05:22:51;;;;;;;10.85;7.35;;;24.20;57.80;;;;;;5052013;28;20057;-62
2021/08/17 05:25:17;;;;;;;10.68;7.45;;;24.20;57.60;;;;;;5052075;28;20056;-73
2021/08/17 05:27:43;;;;;;;10.32;7.57;;;24.30;57.50;;;;;;5051626;28;20062;-77
2021/08/17 05:30:10;;;;;;;12.15;8.85;;;24.30;57.30;;;;;;5052181;28;20029;-62
2021/08/17 05:32:35;;;;;;;10.95;8.02;;;24.40;57.20;;;;;;5051329;28;20017;-76
2021/08/17 05:35:02;;;;;;;9.90;7.38;;;24.50;57.00;;;;;;5049969;28;20033;-65
2021/08/17 05:37:28;;;;;;;11.35;7.70;;;24.60;57.00;;;;;;5050995;28;20032;-72
2021/08/17 05:39:53;;;;;;;9.80;6.97;;;24.60;56.80;;;;;;5050838;28;20078;-65
2021/08/17 05:42:19;;;;;;;9.77;6.72;;;24.70;56.70;;;;;;5050580;28;20047;-70
2021/08/17 05:44:45;;;;;;;10.00;7.30;;;24.90;56.50;;;;;;5051549;28;20062;-81
2021/08/17 05:47:12;;;;;;;13.50;7.70;;;25.00;56.10;;;;;;5052034;28;20036;-81
2021/08/17 05:49:39;;;;;;;10.52;6.82;;;25.10;56.00;;;;;;5051173;28;20568;-84
2021/08/17 05:52:06;;;;;;;10.68;6.90;;;25.10;55.80;;;;;;5052822;28;20040;-75
2021/08/17 05:54:32;;;;;;;9.63;6.57;;;25.20;55.50;;;;;;5052281;28;20020;-79
2021/08/17 05:56:58;;;;;;;9.70;6.40;;;25.30;55.10;;;;;;5051268;28;20063;-79
2021/08/17 05:59:28;;;;;;;9.80;7.22;;;25.40;54.20;;;;;;5051211;28;20064;-74
2021/08/17 06:01:59;;;;;;;9.23;6.57;;;25.50;52.20;;;;;;5053745;28;20029;-84
2021/08/17 06:04:25;;;;;;;7.97;5.38;;;25.60;52.30;;;;;;5052445;28;20115;-82
2021/08/17 06:06:52;;;;;;;9.18;6.57;;;25.70;52.40;;;;;;5049896;28;20029;-67
2021/08/17 06:09:21;;;;;;;12.23;6.90;;;25.80;51.70;;;;;;5051684;28;20037;-62
2021/08/17 06:11:48;;;;;;;10.60;6.70;;;25.90;50.50;;;;;;5051860;28;20052;-80
2021/08/17 06:14:14;;;;;;;9.77;6.07;;;26.00;50.10;;;;;;5051951;28;20031;-72
2021/08/17 06:16:41;;;;;;;7.43;5.32;;;26.10;50.30;;;;;;5051621;28;20021;-70
2021/08/17 06:19:07;;;;;;;9.00;6.07;;;26.20;50.70;;;;;;5050898;28;20025;-76
2021/08/17 06:21:34;;;;;;;10.88;6.63;;;26.30;49.80;;;;;;5051542;28;20028;-72
2021/08/17 06:24:01;;;;;;;9.10;6.40;;;26.50;49.30;;;;;;5046253;28;20032;-69
2021/08/17 06:26:27;;;;;;;9.10;6.75;;;26.60;48.80;;;;;;5047315;28;20192;-69
2021/08/17 06:28:53;;;;;;;8.43;5.65;;;26.80;48.50;;;;;;5051491;28;20480;-63
2021/08/17 06:31:22;;;;;;;8.95;5.80;;;26.90;48.60;;;;;;5042440;28;20025;-67
2021/08/17 06:33:55;;;;;;;9.75;6.32;;;27.10;47.80;;;;;;5041798;28;20026;-65
2021/08/17 06:36:23;;;;;;;7.80;5.40;;;27.30;46.30;;;;;;5043825;28;20380;-64
2021/08/17 06:38:48;;;;;;;7.95;4.75;;;27.40;45.90;;;;;;5038837;28;20025;-65
2021/08/17 06:41:15;;;;;;;7.43;4.72;;;27.60;46.20;;;;;;5043209;28;20021;-63
2021/08/17 06:43:41;;;;;;;6.30;4.10;;;27.70;46.50;;;;;;5041251;28;20056;-62
2021/08/17 06:46:07;;;;;;;7.22;4.50;;;27.90;46.50;;;;;;5050745;28;20040;-74
2021/08/17 06:48:33;;;;;;;7.10;4.28;;;28.10;45.90;;;;;;5051034;28;20545;-72
2021/08/17 06:50:59;;;;;;;7.97;4.80;;;28.30;45.60;;;;;;5048922;28;20053;-72
2021/08/17 06:53:24;;;;;;;6.20;4.07;;;28.50;44.90;;;;;;5049231;28;20383;-65
2021/08/17 06:55:50;;;;;;;7.78;4.60;;;28.60;44.90;;;;;;5050137;28;20028;-65
2021/08/17 06:58:16;;;;;;;6.93;4.50;;;28.80;44.50;;;;;;5049968;28;20479;-64
2021/08/17 07:00:44;;;;;;;7.38;5.00;;;29.00;44.50;;;;;;5042633;28;20025;-62
2021/08/17 07:03:09;;;;;;;6.65;4.25;;;29.10;43.70;;;;;;5050138;28;20143;-62
2021/08/17 07:05:37;;;;;;;7.10;4.60;;;29.20;43.80;;;;;;5052281;28;20813;-74
2021/08/17 07:08:09;;;;;;;6.93;4.97;;;29.40;43.40;;;;;;5053708;28;20037;-74
2021/08/17 07:10:36;;;;;;;6.68;4.47;;;29.50;42.80;;;;;;5054685;28;20414;-74
2021/08/17 07:13:02;;;;;;;5.90;3.88;;;29.70;43.00;;;;;;5054223;28;20039;-72
2021/08/17 07:15:28;;;;;;;7.82;4.70;;;29.70;43.30;;;;;;5054046;28;20467;-71
2021/08/17 07:17:53;;;;;;;6.65;4.38;;;29.90;43.00;;;;;;5053837;28;20029;-76
2021/08/17 07:20:20;;;;;;;7.78;4.78;;;30.00;43.00;;;;;;5054044;28;20025;-62
2021/08/17 07:22:46;;;;;;;7.57;4.53;;;30.20;41.20;;;;;;5054022;28;20376;-62
2021/08/17 07:25:12;;;;;;;7.32;4.63;;;30.30;39.60;;;;;;5053226;28;20029;-62
2021/08/17 07:27:38;;;;;;;7.65;3.60;;;30.30;39.70;;;;;;5052940;28;20033;-63
2021/08/17 07:30:06;;;;;;;6.50;4.03;;;30.40;40.10;;;;;;5052425;28;20040;-64
2021/08/17 07:32:33;;;;;;;7.53;4.30;;;30.40;39.50;;;;;;5052689;28;20085;-79
2021/08/17 07:34:59;;;;;;;7.25;4.30;;;30.50;39.00;;;;;;5053653;28;20484;-63
2021/08/17 07:37:25;;;;;;;6.25;3.60;;;30.50;39.10;;;;;;5052948;28;20017;-62
2021/08/17 07:39:51;;;;;;;6.93;3.92;;;30.60;39.60;;;;;;5052724;28;20024;-63
2021/08/17 07:42:17;;;;;;;6.88;4.30;;;30.80;39.60;;;;;;5055403;28;20029;-62
2021/08/17 07:44:43;;;;;;;7.55;4.10;;;30.90;39.60;;;;;;5059880;28;20025;-62
2021/08/17 07:47:09;;;;;;;5.82;3.63;;;30.90;39.60;;;;;;5053648;28;20548;-69
2021/08/17 07:49:34;;;;;;;7.03;4.53;;;30.90;39.80;;;;;;5053871;28;20108;-62
2021/08/17 07:52:00;;;;;;;9.25;4.60;;;31.10;39.50;;;;;;5054387;28;20168;-61
2021/08/17 07:54:27;;;;;;;6.20;3.90;;;31.10;39.40;;;;;;5054241;28;20071;-62
2021/08/17 07:56:53;;;;;;;7.10;4.18;;;31.10;39.30;;;;;;5054170;28;20017;-70
2021/08/17 07:59:19;;;;;;;6.35;4.07;;;31.30;39.10;;;;;;5051698;28;20388;-73
2021/08/17 08:01:45;;;;;;;7.57;4.13;;;31.40;39.40;;;;;;5064336;28;20017;-76
2021/08/17 08:04:11;;;;;;;7.75;4.28;;;31.50;39.70;;;;;;5073894;28;20035;-63
2021/08/17 08:06:36;;;;;;;6.93;4.50;;;31.70;39.50;;;;;;5054900;28;20025;-64
2021/08/17 08:09:03;;;;;;;5.70;3.90;;;31.80;39.90;;;;;;5064982;28;20020;-68
2021/08/17 08:11:29;;;;;;;7.15;4.32;;;31.90;39.40;;;;;;5043670;28;20017;-64
2021/08/17 08:13:57;;;;;;;6.38;3.78;;;32.00;39.10;;;;;;5059071;28;20079;-63
2021/08/17 08:16:23;;;;;;;5.88;3.30;;;32.10;39.40;;;;;;5064199;28;20020;-63
2021/08/17 08:18:49;;;;;;;7.85;3.95;;;32.20;39.50;;;;;;5052884;28;20074;-66
2021/08/17 08:21:15;;;;;;;7.07;4.43;;;32.40;39.00;;;;;;5049632;28;20484;-72
2021/08/17 08:23:40;;;;;;;6.53;4.00;;;32.50;38.70;;;;;;5052554;28;20522;-64
2021/08/17 08:26:06;;;;;;;5.63;3.55;;;32.60;39.50;;;;;;5052155;28;20091;-68
2021/08/17 08:28:31;;;;;;;6.03;3.50;;;32.70;38.80;;;;;;5052967;28;20033;-67
2021/08/17 08:30:57;;;;;;;6.35;3.85;;;32.90;38.90;;;;;;5052076;28;20028;-64
2021/08/17 08:33:24;;;;;;;5.40;3.70;;;33.00;38.80;;;;;;5053250;28;20025;-64
2021/08/17 08:35:49;;;;;;;6.10;3.97;;;33.10;38.50;;;;;;5051506;28;20021;-61
2021/08/17 08:38:15;;;;;;;6.60;4.15;;;33.30;38.20;;;;;;5051788;28;20083;-62
2021/08/17 08:40:44;;;;;;;5.55;3.85;;;33.30;37.90;;;;;;5052772;28;20100;-62
2021/08/17 08:43:11;;;;;;;5.95;4.35;;;33.30;37.80;;;;;;5050970;28;20387;-63
2021/08/17 08:45:38;;;;;;;8.30;5.10;;;33.60;37.10;;;;;;5051917;28;20154;-64
2021/08/17 08:48:05;;;;;;;7.43;5.20;;;33.60;36.80;;;;;;5051761;28;20040;-62
2021/08/17 08:50:33;;;;;;;7.63;4.13;;;33.50;36.70;;;;;;5052322;28;20068;-64
2021/08/17 08:52:59;;;;;;;8.27;4.95;;;33.50;37.30;;;;;;5051782;28;20417;-61
2021/08/17 08:55:25;;;;;;;6.50;4.28;;;33.50;37.30;;;;;;5052450;28;20094;-64
2021/08/17 08:57:51;;;;;;;6.95;4.07;;;33.60;37.60;;;;;;5052367;28;20398;-63
2021/08/17 09:00:18;;;;;;;6.68;4.60;;;33.60;37.50;;;;;;5051729;28;20021;-65
2021/08/17 09:02:44;;;;;;;6.25;4.43;;;33.80;37.40;;;;;;5052289;28;20017;-64
2021/08/17 09:05:10;;;;;;;6.45;4.25;;;33.80;37.50;;;;;;5052108;28;20438;-68
2021/08/17 09:07:47;;;;;;;6.10;3.90;;;33.90;37.60;;;;;;5052641;28;20036;-69
2021/08/17 09:10:16;;;;;;;6.13;4.28;;;34.10;37.80;;;;;;5052130;28;20032;-63
2021/08/17 09:12:44;;;;;;;9.07;4.82;;;34.30;37.70;;;;;;5051663;28;20021;-64
2021/08/17 09:15:20;;;;;;;7.53;4.85;;;34.50;37.40;;;;;;5051809;28;20167;-74
2021/08/17 09:18:04;;;;;;;6.40;4.78;;;34.60;37.10;;;;;;5051139;28;20469;-73
2021/08/17 09:20:42;;;;;;;6.80;5.00;;;34.70;36.80;;;;;;5051331;28;20028;-71
2021/08/17 09:23:24;;;;;;;7.25;4.63;;;34.80;37.00;;;;;;5052062;28;20024;-71
2021/08/17 09:25:51;;;;;;;7.43;5.00;;;34.90;37.30;;;;;;5051718;28;20025;-70
2021/08/17 09:28:33;;;;;;;6.30;3.97;;;35.00;37.20;;;;;;5051508;28;20052;-71
2021/08/17 09:31:01;;;;;;;8.10;4.75;;;35.10;37.20;;;;;;5050773;28;20029;-69
2021/08/17 09:33:35;;;;;;;7.88;5.22;;;35.30;37.00;;;;;;5050395;28;20044;-67
2021/08/17 09:36:01;;;;;;;7.18;4.90;;;35.30;36.70;;;;;;5051656;28;20071;-68
2021/08/17 09:38:30;;;;;;;7.70;5.70;;;35.30;36.70;;;;;;5051712;28;20377;-76
2021/08/17 09:40:57;;;;;;;7.75;4.75;;;35.30;36.50;;;;;;5051636;28;20017;-73
2021/08/17 09:43:24;;;;;;;7.78;5.30;;;35.30;36.90;;;;;;5050679;28;20029;-78
2021/08/17 09:45:50;;;;;;;7.07;4.60;;;35.40;36.60;;;;;;5051472;28;20029;-70
2021/08/17 09:48:27;;;;;;;6.68;4.45;;;35.50;36.70;;;;;;5052787;28;20040;-81
2021/08/17 09:50:53;;;;;;;6.95;4.10;;;35.60;36.80;;;;;;5049966;28;20087;-70
2021/08/17 09:53:21;;;;;;;7.32;4.97;;;35.80;36.90;;;;;;5050300;28;20068;-68
2021/08/17 09:55:49;;;;;;;7.45;5.30;;;36.00;36.60;;;;;;5050843;28;20053;-72
2021/08/17 09:58:17;;;;;;;6.70;4.72;;;36.10;36.40;;;;;;5050722;28;20379;-74
2021/08/17 10:00:44;;;;;;;6.13;4.32;;;36.30;36.50;;;;;;5052119;28;20044;-76
2021/08/17 10:03:11;;;;;;;6.88;4.22;;;36.40;36.60;;;;;;5050655;28;20450;-76
2021/08/17 10:05:38;;;;;;;6.47;4.03;;;36.70;36.50;;;;;;5051311;28;20032;-71
2021/08/17 10:08:05;;;;;;;5.32;3.60;;;37.00;36.30;;;;;;5050515;28;20031;-69
2021/08/17 10:10:31;;;;;;;6.15;4.00;;;37.20;36.30;;;;;;5050334;28;20083;-67
2021/08/17 10:12:57;;;;;;;7.43;3.80;;;37.50;36.10;;;;;;5051167;28;20033;-69
2021/08/17 10:15:23;;;;;;;6.85;4.60;;;37.60;35.80;;;;;;5050351;28;20025;-62
2021/08/17 10:17:49;;;;;;;6.32;4.00;;;37.70;35.40;;;;;;5050965;28;20021;-68
2021/08/17 10:20:17;;;;;;;5.28;3.13;;;37.80;35.20;;;;;;5051008;28;20388;-68
2021/08/17 10:22:43;;;;;;;5.90;3.72;;;37.90;35.50;;;;;;5050216;28;20487;-67
2021/08/17 10:25:15;;;;;;;6.55;3.78;;;38.10;35.40;;;;;;5051108;28;20463;-67
2021/08/17 10:27:41;;;;;;;7.38;4.57;;;38.40;35.00;;;;;;5051065;28;20021;-65
2021/08/17 10:30:15;;;;;;;5.93;4.10;;;38.50;34.40;;;;;;5051504;28;20040;-81
2021/08/17 10:32:50;;;;;;;5.70;3.88;;;38.60;34.30;;;;;;5050032;28;20120;-68
2021/08/17 10:35:28;;;;;;;5.80;3.50;;;38.60;34.30;;;;;;5050930;28;20017;-68
2021/08/17 10:38:15;;;;;;;4.55;2.90;;;38.70;34.60;;;;;;5054763;28;20079;-68
2021/08/17 10:40:50;;;;;;;7.25;3.50;;;39.10;35.00;;;;;;5055062;28;20032;-69
2021/08/17 10:43:46;;;;;;;5.35;3.33;;;39.60;34.70;;;;;;5052736;28;20029;-69
2021/08/17 10:46:13;;;;;;;4.80;2.90;;;39.90;34.70;;;;;;5054152;28;20108;-68
2021/08/17 10:51:19;;;;;;;5.68;3.03;;;40.80;34.80;;;;;;5055133;28;20634;-79
2021/08/17 10:53:46;;;;;;;4.75;2.85;;;41.10;34.30;;;;;;5053056;28;20029;-78
2021/08/17 10:56:23;;;;;;;5.82;3.38;;;41.50;34.50;;;;;;5052922;28;20112;-71
2021/08/17 10:58:51;;;;;;;5.93;3.53;;;41.90;34.00;;;;;;5054782;28;20021;-77
2021/08/17 11:01:40;;;;;;;7.20;3.72;;;42.30;33.80;;;;;;5053664;28;20029;-74
2021/08/17 11:04:20;;;;;;;5.90;3.35;;;42.50;33.00;;;;;;5054447;28;20025;-68
2021/08/17 11:06:53;;;;;;;5.20;3.47;;;42.80;33.20;;;;;;5054312;28;20021;-63
2021/08/17 11:09:20;;;;;;;5.00;3.40;;;43.10;32.70;;;;;;5054521;28;20032;-64
2021/08/17 11:11:53;;;;;;;6.95;3.33;;;43.10;32.20;;;;;;5054732;28;20109;-70
2021/08/17 11:14:21;;;;;;;5.53;3.60;;;43.10;32.20;;;;;;5054542;28;20029;-78
2021/08/17 11:16:51;;;;;;;4.90;2.92;;;43.20;32.10;;;;;;5055001;28;20028;-82
2021/08/17 11:19:19;;;;;;;4.88;3.15;;;43.40;32.20;;;;;;5054468;28;20492;-63
2021/08/17 11:21:49;;;;;;;5.40;2.97;;;43.80;32.10;;;;;;5053028;28;20427;-63
2021/08/17 11:24:23;;;;;;;6.05;2.78;;;44.10;32.20;;;;;;5054141;28;20052;-64
2021/08/17 11:27:00;;;;;;;4.63;2.80;;;44.50;32.00;;;;;;5053619;28;20044;-66
2021/08/17 11:29:44;;;;;;;5.10;2.92;;;44.80;31.60;;;;;;5054154;28;20029;-68
2021/08/17 11:32:32;;;;;;;4.75;2.92;;;45.20;32.00;;;;;;5054068;28;20029;-64
2021/08/17 11:35:03;;;;;;;5.68;3.17;;;45.50;31.60;;;;;;5053072;28;20557;-70
2021/08/17 11:37:30;;;;;;;5.47;3.55;;;45.70;31.60;;;;;;5053550;28;20446;-67
2021/08/17 11:39:58;;;;;;;5.85;3.20;;;45.90;30.90;;;;;;5054031;28;20025;-68
2021/08/17 11:42:36;;;;;;;4.85;3.03;;;46.00;31.10;;;;;;5054015;28;20025;-76
2021/08/17 11:45:14;;;;;;;4.93;2.88;;;46.30;30.90;;;;;;5053956;28;20376;-72
2021/08/17 11:47:41;;;;;;;5.10;3.20;;;46.60;30.90;;;;;;5052719;28;20041;-69
2021/08/17 11:50:12;;;;;;;5.65;3.22;;;46.80;30.40;;;;;;5052950;28;20045;-64
2021/08/17 11:52:46;;;;;;;5.95;3.03;;;46.90;30.20;;;;;;5053023;28;20033;-68
2021/08/17 11:55:17;;;;;;;6.32;3.10;;;46.90;30.00;;;;;;5053743;28;20474;-65
2021/08/17 11:57:47;;;;;;;5.60;2.80;;;46.90;30.00;;;;;;5053806;28;20070;-63
2021/08/17 12:00:14;;;;;;;5.50;3.15;;;47.10;30.00;;;;;;5053043;28;20031;-64
2021/08/17 12:02:42;;;;;;;5.38;3.47;;;47.40;30.30;;;;;;5053829;28;20017;-64
2021/08/17 12:05:14;;;;;;;5.43;3.70;;;47.60;30.00;;;;;;5053704;28;20025;-69
2021/08/17 12:07:41;;;;;;;9.18;5.75;;;47.80;29.70;;;;;;5053438;28;20021;-68
2021/08/17 12:10:29;;;;;;;8.63;6.03;;;47.80;29.80;;;;;;5052716;28;20082;-72
2021/08/17 12:12:57;;;;;;;6.88;3.30;;;48.00;29.20;;;;;;5046538;28;20041;-70
2021/08/17 12:15:47;;;;;;;5.47;3.25;;;47.80;29.20;;;;;;5052637;28;20100;-71
2021/08/17 12:18:15;;;;;;;6.63;3.50;;;47.60;29.20;;;;;;5053351;28;20379;-64
2021/08/17 12:20:52;;;;;;;5.63;3.20;;;47.40;29.20;;;;;;5053303;28;20017;-64
2021/08/17 12:23:28;;;;;;;6.57;3.20;;;47.40;29.30;;;;;;5052313;28;20364;-63
2021/08/17 12:26:18;;;;;;;5.72;3.40;;;47.60;29.70;;;;;;5052270;28;20025;-62
2021/08/17 12:28:50;;;;;;;6.43;3.65;;;47.80;29.00;;;;;;5047782;28;20044;-63
2021/08/17 12:31:18;;;;;;;6.85;3.15;;;47.90;29.30;;;;;;5052863;28;20154;-63
2021/08/17 12:33:53;;;;;;;5.00;3.30;;;48.00;29.30;;;;;;5052910;28;20025;-62
2021/08/17 12:36:24;;;;;;;5.18;2.90;;;48.10;29.20;;;;;;5052814;28;20020;-74
2021/08/17 12:38:51;;;;;;;6.00;3.50;;;48.30;29.00;;;;;;5051736;28;20073;-63
2021/08/17 12:41:32;;;;;;;6.55;3.30;;;48.30;28.90;;;;;;5051525;28;20051;-65
2021/08/17 12:43:58;;;;;;;4.78;2.85;;;48.30;28.90;;;;;;5052050;28;20032;-60
2021/08/17 12:46:23;;;;;;;6.90;3.30;;;48.30;29.10;;;;;;5051995;28;20029;-66